createdAt,value
2018-08-06T00:04:58.200Z,79.10
2018-08-06T00:10:02.936Z,79.00
2018-08-06T00:15:09.370Z,78.60
2018-08-06T00:20:14.819Z,78.50
2018-08-06T00:30:23.716Z,78.60
2018-08-06T00:35:28.418Z,78.60
2018-08-06T00:40:33.209Z,78.80
2018-08-06T00:45:37.875Z,78.60
2018-08-06T00:50:42.798Z,78.90
2018-08-06T00:55:47.625Z,78.90
2018-08-06T01:00:52.217Z,79.00
2018-08-06T01:05:58.121Z,79.20
2018-08-06T01:11:03.365Z,79.30
2018-08-06T01:16:08.189Z,79.30
2018-08-06T01:21:13.048Z,79.30
2018-08-06T01:26:17.787Z,79.50
2018-08-06T01:31:22.609Z,79.60
2018-08-06T01:36:27.339Z,79.90
2018-08-06T01:41:32.055Z,79.80
2018-08-06T01:46:37.583Z,80.00
2018-08-06T01:51:42.487Z,80.30
2018-08-06T01:56:47.432Z,80.60
2018-08-06T02:01:52.382Z,80.70
2018-08-06T02:06:57.310Z,81.10
2018-08-06T02:12:02.037Z,81.50
2018-08-06T02:17:06.781Z,81.60
2018-08-06T02:22:11.698Z,81.80
2018-08-06T02:27:16.312Z,82.10
2018-08-06T02:32:21.211Z,82.00
2018-08-06T02:37:25.791Z,82.40
2018-08-06T02:42:31.110Z,82.60
2018-08-06T02:47:36.018Z,82.90
2018-08-06T02:52:42.239Z,83.40
2018-08-06T02:57:46.888Z,83.70
2018-08-06T03:02:51.748Z,84.10
2018-08-06T03:07:56.471Z,84.10
2018-08-06T03:13:01.213Z,84.40
2018-08-06T03:18:06.170Z,84.90
2018-08-06T03:23:10.917Z,85.20
2018-08-06T03:28:15.751Z,85.50
2018-08-06T03:33:20.336Z,85.90
2018-08-06T03:43:29.926Z,86.20
2018-08-06T03:48:34.708Z,85.80
2018-08-06T03:53:39.753Z,85.70
2018-08-06T03:58:45.706Z,85.70
2018-08-06T04:03:50.748Z,85.80
2018-08-06T04:08:55.590Z,86.20
2018-08-06T04:14:06.858Z,86.60
2018-08-06T04:19:12.726Z,87.30
2018-08-06T04:24:18.036Z,88.50
2018-08-06T04:29:24.044Z,89.00
2018-08-06T04:34:29.900Z,88.90
2018-08-06T04:39:36.089Z,88.70
2018-08-06T04:44:41.025Z,88.40
2018-08-06T04:49:45.787Z,88.50
2018-08-06T04:54:52.371Z,87.70
2018-08-06T04:59:57.054Z,87.20
2018-08-06T05:05:02.056Z,86.60
2018-08-06T05:10:07.808Z,87.50
2018-08-06T05:15:12.718Z,87.60
2018-08-06T05:20:17.531Z,88.80
2018-08-06T05:25:22.503Z,88.30
2018-08-06T05:30:27.295Z,87.20
2018-08-06T05:35:32.044Z,86.80
2018-08-06T05:40:37.001Z,86.80
2018-08-06T05:45:42.014Z,85.50
2018-08-06T05:50:46.913Z,83.90
2018-08-06T05:55:52.153Z,83.80
2018-08-06T06:00:56.859Z,83.70
2018-08-06T06:06:01.717Z,83.50
2018-08-06T06:11:06.873Z,82.60
2018-08-06T06:16:11.897Z,81.90
2018-08-06T06:21:17.030Z,82.00
2018-08-06T06:26:21.790Z,82.30
2018-08-06T06:31:26.634Z,82.40
2018-08-06T06:36:31.349Z,82.60
2018-08-06T06:41:36.430Z,82.40
2018-08-06T06:46:41.236Z,83.10
2018-08-06T06:51:45.752Z,81.90
2018-08-06T06:56:51.108Z,82.30
2018-08-06T07:01:55.817Z,82.10
2018-08-06T07:07:00.798Z,82.10
2018-08-06T07:12:05.945Z,82.50
2018-08-06T07:18:13.671Z,82.40
2018-08-06T07:23:18.583Z,81.70
2018-08-06T07:28:23.308Z,81.90
2018-08-06T07:33:28.161Z,80.90
2018-08-06T07:38:33.346Z,81.70
2018-08-06T07:43:38.345Z,81.30
2018-08-06T07:48:43.067Z,81.10
2018-08-06T07:53:47.974Z,80.30
2018-08-06T07:58:53.416Z,80.80
2018-08-06T08:03:58.229Z,81.80
2018-08-06T08:09:03.178Z,81.70
2018-08-06T08:14:07.927Z,82.90
2018-08-06T08:19:13.027Z,83.40
2018-08-06T08:24:17.997Z,83.60
2018-08-06T08:29:23.489Z,82.70
2018-08-06T08:34:28.152Z,82.40
2018-08-06T08:39:33.043Z,82.70
2018-08-06T08:44:38.118Z,81.80
2018-08-06T08:49:42.772Z,82.60
2018-08-06T08:54:47.729Z,82.40
2018-08-06T08:59:52.691Z,83.40
2018-08-06T09:04:58.371Z,82.30
2018-08-06T09:10:03.324Z,82.60
2018-08-06T09:15:11.594Z,83.20
2018-08-06T09:20:16.524Z,82.70
2018-08-06T09:25:21.920Z,82.50
2018-08-06T09:30:26.603Z,81.10
2018-08-06T09:35:31.453Z,81.80
2018-08-06T09:40:36.858Z,81.60
2018-08-06T09:45:41.817Z,82.30
2018-08-06T09:50:46.643Z,81.70
2018-08-06T09:55:51.734Z,80.80
2018-08-06T10:01:03.525Z,81.20
2018-08-06T10:07:12.201Z,80.70
2018-08-06T10:12:16.997Z,80.50
2018-08-06T10:17:21.655Z,80.30
2018-08-06T10:22:26.410Z,80.70
2018-08-06T10:27:31.117Z,79.90
2018-08-06T10:32:37.029Z,79.10
2018-08-06T10:37:41.645Z,78.20
2018-08-06T10:42:46.644Z,78.70
2018-08-06T10:47:51.736Z,78.20
2018-08-06T10:52:56.294Z,77.80
2018-08-06T10:58:01.086Z,76.60
2018-08-06T11:03:06.635Z,77.00
2018-08-06T11:08:11.471Z,76.20
2018-08-06T11:13:16.318Z,75.10
2018-08-06T11:18:21.040Z,73.90
2018-08-06T11:23:25.783Z,74.00
2018-08-06T11:28:30.940Z,73.50
2018-08-06T11:33:35.847Z,73.80
2018-08-06T11:38:40.597Z,71.90
2018-08-06T11:43:46.154Z,71.50
2018-08-06T11:48:51.021Z,69.70
2018-08-06T11:53:55.823Z,68.60
2018-08-06T11:59:00.665Z,69.00
2018-08-06T12:04:05.619Z,67.50
2018-08-06T12:09:10.688Z,66.30
2018-08-06T12:14:16.414Z,66.10
2018-08-06T12:19:21.269Z,65.60
2018-08-06T12:24:26.459Z,65.10
2018-08-06T12:29:31.446Z,65.30
2018-08-06T12:34:36.163Z,65.40
2018-08-06T12:39:41.001Z,64.60
2018-08-06T12:44:46.307Z,62.60
2018-08-06T12:49:52.338Z,61.40
2018-08-06T12:54:57.616Z,60.80
2018-08-06T13:00:02.883Z,61.50
2018-08-06T13:05:07.837Z,59.80
2018-08-06T13:10:13.864Z,60.50
2018-08-06T13:15:18.760Z,60.10
2018-08-06T13:20:23.698Z,59.50
2018-08-06T13:25:29.500Z,57.30
2018-08-06T13:30:34.325Z,59.30
2018-08-06T13:35:39.217Z,59.70
2018-08-06T13:40:43.868Z,57.50
2018-08-06T13:45:48.693Z,58.40
2018-08-06T13:50:53.562Z,56.50
2018-08-06T13:55:58.418Z,55.70
2018-08-06T14:01:03.491Z,57.00
2018-08-06T14:06:08.285Z,56.10
2018-08-06T14:11:13.995Z,55.60
2018-08-06T14:16:18.725Z,56.30
2018-08-06T14:21:23.417Z,56.20
2018-08-06T14:26:29.122Z,56.80
2018-08-06T14:31:33.845Z,57.50
2018-08-06T14:36:38.623Z,57.90
2018-08-06T14:41:43.487Z,57.60
2018-08-06T14:46:48.347Z,58.70
2018-08-06T14:51:53.575Z,58.20
2018-08-06T14:56:59.046Z,56.50
2018-08-06T15:07:04.087Z,56.00
2018-08-06T15:12:09.013Z,53.90
2018-08-06T15:17:14.271Z,52.60
2018-08-06T15:22:19.269Z,53.00
2018-08-06T15:27:24.226Z,53.40
2018-08-06T15:32:29.073Z,53.30
2018-08-06T15:37:34.121Z,53.50
2018-08-06T15:42:39.382Z,54.50
2018-08-06T15:47:45.255Z,53.80
2018-08-06T15:52:50.050Z,54.10
2018-08-06T15:57:54.847Z,53.60
2018-08-06T16:03:00.464Z,53.90
2018-08-06T16:08:05.861Z,54.70
2018-08-06T16:13:10.741Z,56.10
2018-08-06T16:18:15.415Z,57.20
2018-08-06T16:23:20.809Z,57.70
2018-08-06T16:28:25.655Z,58.70
2018-08-06T16:33:30.581Z,60.00
2018-08-06T16:38:35.575Z,59.90
2018-08-06T16:43:40.501Z,59.70
2018-08-06T16:48:45.627Z,61.70
2018-08-06T16:53:50.697Z,63.50
2018-08-06T16:58:55.644Z,63.70
2018-08-06T17:04:04.289Z,62.90
2018-08-06T17:09:09.828Z,64.00
2018-08-06T17:14:14.883Z,64.30
2018-08-06T17:19:19.912Z,70.90
2018-08-06T17:24:24.932Z,73.80
2018-08-06T17:29:29.884Z,74.60
2018-08-06T17:34:34.931Z,74.10
2018-08-06T17:39:43.154Z,76.00
2018-08-06T17:44:48.214Z,77.30
2018-08-06T17:50:07.697Z,77.10
2018-08-06T17:55:12.771Z,76.20
2018-08-06T18:00:18.181Z,76.50
2018-08-06T18:05:24.456Z,76.80
2018-08-06T18:10:30.425Z,75.70
2018-08-06T18:15:35.952Z,76.30
2018-08-06T18:20:40.811Z,77.10
2018-08-06T18:25:45.736Z,79.10
2018-08-06T18:30:50.980Z,80.90
2018-08-06T18:35:55.887Z,84.20
2018-08-06T18:41:01.051Z,84.00
2018-08-06T18:46:06.187Z,86.20
2018-08-06T18:51:11.083Z,86.10
2018-08-06T18:56:15.970Z,85.00
2018-08-06T19:01:20.818Z,85.40
2018-08-06T19:06:25.525Z,85.70
2018-08-06T19:11:30.040Z,85.60
2018-08-06T19:16:34.849Z,86.40
2018-08-06T19:21:39.807Z,85.80
2018-08-06T19:26:44.795Z,85.30
2018-08-06T19:31:49.972Z,85.50
2018-08-06T19:36:59.877Z,88.10
2018-08-06T19:42:04.991Z,89.40
2018-08-06T19:47:09.814Z,88.80
2018-08-06T19:52:14.753Z,90.00
2018-08-06T19:57:20.055Z,92.20
2018-08-06T20:02:25.572Z,93.00
2018-08-06T20:07:30.576Z,92.80
2018-08-06T20:12:35.593Z,92.50
2018-08-06T20:23:19.023Z,89.20
2018-08-06T20:28:24.463Z,89.50
2018-08-06T20:33:29.396Z,88.10
2018-08-06T20:38:34.320Z,89.30
2018-08-06T20:43:39.530Z,89.10
2018-08-06T20:48:44.328Z,90.30
2018-08-06T20:53:49.196Z,91.50
2018-08-06T20:58:54.120Z,89.80
2018-08-06T21:03:58.881Z,90.40
2018-08-06T21:09:03.975Z,87.70
2018-08-06T21:14:09.624Z,90.20
2018-08-06T21:19:14.420Z,89.50
2018-08-06T21:24:19.250Z,86.10
2018-08-06T21:29:24.055Z,84.10
2018-08-06T21:34:28.945Z,84.40
2018-08-06T21:39:33.796Z,85.30
2018-08-06T21:44:38.625Z,82.50
2018-08-06T21:49:43.952Z,82.20
2018-08-06T21:54:48.897Z,84.80
2018-08-06T21:59:53.747Z,86.60
2018-08-06T22:04:59.083Z,86.60
2018-08-06T22:10:12.417Z,86.60
2018-08-06T22:15:17.250Z,85.60
2018-08-06T22:20:22.135Z,85.30
2018-08-06T22:25:27.090Z,86.20
2018-08-06T22:30:31.987Z,85.30
2018-08-06T22:35:36.739Z,86.10
2018-08-06T22:40:41.480Z,86.50
2018-08-06T22:45:46.183Z,87.40
2018-08-06T22:50:50.902Z,87.80
2018-08-06T22:56:07.593Z,87.90
2018-08-06T23:01:12.580Z,87.90
2018-08-06T23:06:17.523Z,87.90
2018-08-06T23:11:22.396Z,88.00
2018-08-06T23:16:27.196Z,88.40
2018-08-06T23:21:31.960Z,89.10
2018-08-06T23:26:36.710Z,89.70
2018-08-06T23:31:41.707Z,90.10
2018-08-06T23:36:46.440Z,90.30
2018-08-06T23:41:51.691Z,90.20
2018-08-06T23:46:56.431Z,90.60
2018-08-06T23:52:01.380Z,90.00
2018-08-06T23:57:06.534Z,90.20
